sensor_id;sensor_type;location;lat;lon;timestamp;P1;durP1;ratioP1;P2;durP2;ratioP2
12912;SDS011;6524;51.368;11.984;2023-12-29T00:03:24;2.92;;;2.40;;
12912;SDS011;6524;51.368;11.984;2023-12-29T00:08:24;2.63;;;2.40;;
12912;SDS011;6524;51.368;11.984;2023-12-29T00:13:25;2.60;;;2.40;;
12912;SDS011;6524;51.368;11.984;2023-12-29T00:18:25;2.78;;;2.40;;
12912;SDS011;6524;51.368;11.984;2023-12-29T00:23:26;3.70;;;3.13;;
12912;SDS011;6524;51.368;11.984;2023-12-29T00:28:29;3.15;;;2.67;;
12912;SDS011;6524;51.368;11.984;2023-12-29T00:33:30;2.80;;;2.60;;
12912;SDS011;6524;51.368;11.984;2023-12-29T00:38:31;3.00;;;2.70;;
12912;SDS011;6524;51.368;11.984;2023-12-29T00:43:32;3.20;;;2.78;;
12912;SDS011;6524;51.368;11.984;2023-12-29T00:48:32;3.53;;;2.92;;
12912;SDS011;6524;51.368;11.984;2023-12-29T00:53:34;3.28;;;2.97;;
12912;SDS011;6524;51.368;11.984;2023-12-29T00:58:35;2.67;;;2.33;;
12912;SDS011;6524;51.368;11.984;2023-12-29T01:03:35;2.55;;;2.35;;
12912;SDS011;6524;51.368;11.984;2023-12-29T01:08:36;3.65;;;2.88;;
12912;SDS011;6524;51.368;11.984;2023-12-29T01:13:36;4.05;;;2.78;;
12912;SDS011;6524;51.368;11.984;2023-12-29T01:18:37;2.70;;;2.50;;
12912;SDS011;6524;51.368;11.984;2023-12-29T01:23:37;2.53;;;2.30;;
12912;SDS011;6524;51.368;11.984;2023-12-29T01:28:37;2.85;;;2.17;;
12912;SDS011;6524;51.368;11.984;2023-12-29T01:33:37;3.20;;;1.90;;
12912;SDS011;6524;51.368;11.984;2023-12-29T01:38:38;2.65;;;2.00;;
12912;SDS011;6524;51.368;11.984;2023-12-29T01:48:56;2.45;;;1.90;;
12912;SDS011;6524;51.368;11.984;2023-12-29T01:53:58;2.50;;;1.73;;
12912;SDS011;6524;51.368;11.984;2023-12-29T01:58:59;2.00;;;1.80;;
12912;SDS011;6524;51.368;11.984;2023-12-29T02:03:59;2.42;;;1.70;;
12912;SDS011;6524;51.368;11.984;2023-12-29T05:03:07;2.65;;;1.90;;
12912;SDS011;6524;51.368;11.984;2023-12-29T05:08:10;2.60;;;1.67;;
12912;SDS011;6524;51.368;11.984;2023-12-29T05:13:11;1.80;;;1.70;;
12912;SDS011;6524;51.368;11.984;2023-12-29T05:18:11;2.90;;;1.70;;
12912;SDS011;6524;51.368;11.984;2023-12-29T05:23:11;2.30;;;2.03;;
12912;SDS011;6524;51.368;11.984;2023-12-29T05:28:13;2.03;;;1.83;;
12912;SDS011;6524;51.368;11.984;2023-12-29T05:33:20;2.30;;;2.10;;
12912;SDS011;6524;51.368;11.984;2023-12-29T05:38:20;2.65;;;1.88;;
12912;SDS011;6524;51.368;11.984;2023-12-29T05:43:21;1.88;;;1.77;;
12912;SDS011;6524;51.368;11.984;2023-12-29T05:48:21;2.08;;;1.88;;
12912;SDS011;6524;51.368;11.984;2023-12-29T05:53:21;2.83;;;2.63;;
12912;SDS011;6524;51.368;11.984;2023-12-29T05:58:22;2.50;;;1.98;;
12912;SDS011;6524;51.368;11.984;2023-12-29T06:03:22;2.40;;;1.90;;
12912;SDS011;6524;51.368;11.984;2023-12-29T06:08:22;2.42;;;2.15;;
12912;SDS011;6524;51.368;11.984;2023-12-29T06:13:23;2.58;;;2.00;;
12912;SDS011;6524;51.368;11.984;2023-12-29T06:18:24;3.30;;;2.38;;
12912;SDS011;6524;51.368;11.984;2023-12-29T06:23:24;2.15;;;1.77;;
12912;SDS011;6524;51.368;11.984;2023-12-29T06:28:25;2.50;;;1.83;;
12912;SDS011;6524;51.368;11.984;2023-12-29T06:33:26;1.83;;;1.63;;
12912;SDS011;6524;51.368;11.984;2023-12-29T06:38:26;2.70;;;2.17;;
12912;SDS011;6524;51.368;11.984;2023-12-29T06:43:26;2.20;;;1.90;;
12912;SDS011;6524;51.368;11.984;2023-12-29T06:48:27;2.58;;;1.98;;
12912;SDS011;6524;51.368;11.984;2023-12-29T06:53:27;2.00;;;1.80;;
12912;SDS011;6524;51.368;11.984;2023-12-29T06:58:27;4.75;;;1.90;;
12912;SDS011;6524;51.368;11.984;2023-12-29T07:03:27;3.72;;;2.10;;
12912;SDS011;6524;51.368;11.984;2023-12-29T07:08:28;2.05;;;1.88;;
12912;SDS011;6524;51.368;11.984;2023-12-29T07:13:28;5.10;;;2.08;;
12912;SDS011;6524;51.368;11.984;2023-12-29T07:18:29;3.37;;;1.90;;
12912;SDS011;6524;51.368;11.984;2023-12-29T07:23:29;2.78;;;1.98;;
12912;SDS011;6524;51.368;11.984;2023-12-29T07:28:29;2.60;;;1.83;;
12912;SDS011;6524;51.368;11.984;2023-12-29T07:33:31;2.05;;;1.67;;
12912;SDS011;6524;51.368;11.984;2023-12-29T07:38:31;4.85;;;1.90;;
12912;SDS011;6524;51.368;11.984;2023-12-29T07:43:32;2.70;;;1.85;;
12912;SDS011;6524;51.368;11.984;2023-12-29T07:48:32;4.93;;;2.00;;
12912;SDS011;6524;51.368;11.984;2023-12-29T07:53:35;3.00;;;2.00;;
12912;SDS011;6524;51.368;11.984;2023-12-29T07:58:36;2.15;;;1.95;;
12912;SDS011;6524;51.368;11.984;2023-12-29T08:03:36;2.53;;;1.80;;
12912;SDS011;6524;51.368;11.984;2023-12-29T08:08:39;3.28;;;2.30;;
12912;SDS011;6524;51.368;11.984;2023-12-29T08:13:40;2.20;;;1.90;;
12912;SDS011;6524;51.368;11.984;2023-12-29T08:18:40;2.60;;;1.90;;
12912;SDS011;6524;51.368;11.984;2023-12-29T08:23:41;3.08;;;1.90;;
12912;SDS011;6524;51.368;11.984;2023-12-29T08:28:41;2.17;;;1.98;;
12912;SDS011;6524;51.368;11.984;2023-12-29T08:33:43;4.05;;;1.90;;
12912;SDS011;6524;51.368;11.984;2023-12-29T08:38:43;3.00;;;1.70;;
12912;SDS011;6524;51.368;11.984;2023-12-29T08:43:45;2.83;;;2.10;;
12912;SDS011;6524;51.368;11.984;2023-12-29T08:48:48;2.72;;;1.80;;
12912;SDS011;6524;51.368;11.984;2023-12-29T08:53:56;6.55;;;2.53;;
12912;SDS011;6524;51.368;11.984;2023-12-29T08:58:58;6.35;;;2.03;;
12912;SDS011;6524;51.368;11.984;2023-12-29T09:03:58;7.90;;;3.00;;
12912;SDS011;6524;51.368;11.984;2023-12-29T09:09:01;2.42;;;1.98;;
12912;SDS011;6524;51.368;11.984;2023-12-29T09:14:01;4.30;;;2.17;;
12912;SDS011;6524;51.368;11.984;2023-12-29T09:19:02;2.60;;;2.00;;
12912;SDS011;6524;51.368;11.984;2023-12-29T09:24:03;3.47;;;1.83;;
12912;SDS011;6524;51.368;11.984;2023-12-29T09:29:03;3.92;;;2.30;;
12912;SDS011;6524;51.368;11.984;2023-12-29T09:34:03;2.20;;;1.80;;
12912;SDS011;6524;51.368;11.984;2023-12-29T09:39:04;4.15;;;2.20;;
12912;SDS011;6524;51.368;11.984;2023-12-29T09:44:05;3.05;;;1.63;;
12912;SDS011;6524;51.368;11.984;2023-12-29T09:49:13;2.17;;;1.83;;
12912;SDS011;6524;51.368;11.984;2023-12-29T09:54:16;3.92;;;2.00;;
12912;SDS011;6524;51.368;11.984;2023-12-29T09:59:17;2.70;;;1.83;;
12912;SDS011;6524;51.368;11.984;2023-12-29T10:04:18;2.30;;;1.80;;
12912;SDS011;6524;51.368;11.984;2023-12-29T10:09:19;2.53;;;1.90;;
12912;SDS011;6524;51.368;11.984;2023-12-29T10:19:46;3.00;;;1.80;;
12912;SDS011;6524;51.368;11.984;2023-12-29T10:24:55;2.60;;;2.03;;
12912;SDS011;6524;51.368;11.984;2023-12-29T10:29:56;1.85;;;1.60;;
12912;SDS011;6524;51.368;11.984;2023-12-29T10:35:09;3.55;;;1.77;;
12912;SDS011;6524;51.368;11.984;2023-12-29T10:40:16;1.98;;;1.40;;
12912;SDS011;6524;51.368;11.984;2023-12-29T10:45:21;2.90;;;1.70;;
12912;SDS011;6524;51.368;11.984;2023-12-29T10:50:23;1.80;;;1.70;;
12912;SDS011;6524;51.368;11.984;2023-12-29T10:55:23;2.72;;;1.70;;
12912;SDS011;6524;51.368;11.984;2023-12-29T11:00:28;2.70;;;1.67;;
12912;SDS011;6524;51.368;11.984;2023-12-29T11:05:30;3.30;;;1.60;;
12912;SDS011;6524;51.368;11.984;2023-12-29T11:10:30;3.15;;;1.80;;
12912;SDS011;6524;51.368;11.984;2023-12-29T11:15:34;1.80;;;1.50;;
12912;SDS011;6524;51.368;11.984;2023-12-29T11:20:34;2.33;;;1.50;;
12912;SDS011;6524;51.368;11.984;2023-12-29T11:25:36;2.42;;;1.60;;
12912;SDS011;6524;51.368;11.984;2023-12-29T11:30:37;1.67;;;1.58;;
12912;SDS011;6524;51.368;11.984;2023-12-29T11:35:48;3.30;;;1.83;;
12912;SDS011;6524;51.368;11.984;2023-12-29T11:46:34;3.60;;;2.00;;
12912;SDS011;6524;51.368;11.984;2023-12-29T11:51:45;2.05;;;1.70;;
12912;SDS011;6524;51.368;11.984;2023-12-29T11:57:08;2.25;;;1.73;;
12912;SDS011;6524;51.368;11.984;2023-12-29T12:02:08;1.75;;;1.65;;
12912;SDS011;6524;51.368;11.984;2023-12-29T12:12:41;2.72;;;2.15;;
12912;SDS011;6524;51.368;11.984;2023-12-29T12:17:42;2.28;;;1.80;;
12912;SDS011;6524;51.368;11.984;2023-12-29T12:22:43;3.10;;;1.80;;
12912;SDS011;6524;51.368;11.984;2023-12-29T12:27:44;1.70;;;1.60;;
12912;SDS011;6524;51.368;11.984;2023-12-29T12:32:47;3.55;;;2.20;;
12912;SDS011;6524;51.368;11.984;2023-12-29T12:43:17;2.72;;;1.90;;
12912;SDS011;6524;51.368;11.984;2023-12-29T12:48:20;1.83;;;1.73;;
12912;SDS011;6524;51.368;11.984;2023-12-29T12:53:28;2.55;;;2.08;;
12912;SDS011;6524;51.368;11.984;2023-12-29T12:58:29;1.80;;;1.70;;
12912;SDS011;6524;51.368;11.984;2023-12-29T13:03:30;2.92;;;1.63;;
12912;SDS011;6524;51.368;11.984;2023-12-29T13:08:32;2.17;;;1.73;;
12912;SDS011;6524;51.368;11.984;2023-12-29T13:13:43;2.33;;;1.50;;
12912;SDS011;6524;51.368;11.984;2023-12-29T13:19:16;2.95;;;1.50;;
12912;SDS011;6524;51.368;11.984;2023-12-29T13:24:45;2.10;;;1.65;;
12912;SDS011;6524;51.368;11.984;2023-12-29T13:29:47;2.00;;;1.42;;
12912;SDS011;6524;51.368;11.984;2023-12-29T13:45:56;2.08;;;1.60;;
12912;SDS011;6524;51.368;11.984;2023-12-29T13:50:57;2.55;;;1.40;;
12912;SDS011;6524;51.368;11.984;2023-12-29T13:56:07;1.95;;;1.50;;
12912;SDS011;6524;51.368;11.984;2023-12-29T14:01:08;1.30;;;1.20;;
12912;SDS011;6524;51.368;11.984;2023-12-29T14:06:11;2.15;;;1.95;;
12912;SDS011;6524;51.368;11.984;2023-12-29T14:11:19;2.60;;;1.60;;
12912;SDS011;6524;51.368;11.984;2023-12-29T14:16:19;1.50;;;1.40;;
12912;SDS011;6524;51.368;11.984;2023-12-29T14:21:27;2.03;;;1.38;;
12912;SDS011;6524;51.368;11.984;2023-12-29T14:26:28;2.33;;;1.50;;
12912;SDS011;6524;51.368;11.984;2023-12-29T14:31:34;1.88;;;1.60;;
12912;SDS011;6524;51.368;11.984;2023-12-29T14:36:37;4.07;;;2.20;;
12912;SDS011;6524;51.368;11.984;2023-12-29T14:41:39;1.90;;;1.40;;
12912;SDS011;6524;51.368;11.984;2023-12-29T14:46:39;1.83;;;1.45;;
12912;SDS011;6524;51.368;11.984;2023-12-29T14:51:40;1.30;;;1.20;;
12912;SDS011;6524;51.368;11.984;2023-12-29T14:56:40;2.85;;;1.60;;
12912;SDS011;6524;51.368;11.984;2023-12-29T15:01:41;2.58;;;2.38;;
12912;SDS011;6524;51.368;11.984;2023-12-29T15:06:41;2.47;;;1.75;;
12912;SDS011;6524;51.368;11.984;2023-12-29T15:11:44;1.70;;;1.42;;
12912;SDS011;6524;51.368;11.984;2023-12-29T15:16:47;2.10;;;1.50;;
12912;SDS011;6524;51.368;11.984;2023-12-29T15:21:48;2.33;;;1.40;;
12912;SDS011;6524;51.368;11.984;2023-12-29T15:26:53;1.67;;;1.30;;
12912;SDS011;6524;51.368;11.984;2023-12-29T15:31:53;1.48;;;1.38;;
12912;SDS011;6524;51.368;11.984;2023-12-29T15:36:53;1.92;;;1.50;;
12912;SDS011;6524;51.368;11.984;2023-12-29T15:41:53;2.95;;;1.40;;
12912;SDS011;6524;51.368;11.984;2023-12-29T15:46:54;2.20;;;1.50;;
12912;SDS011;6524;51.368;11.984;2023-12-29T15:51:55;3.50;;;1.45;;
12912;SDS011;6524;51.368;11.984;2023-12-29T15:56:55;2.08;;;1.65;;
12912;SDS011;6524;51.368;11.984;2023-12-29T16:01:56;2.65;;;2.10;;
12912;SDS011;6524;51.368;11.984;2023-12-29T16:06:56;2.05;;;1.45;;
12912;SDS011;6524;51.368;11.984;2023-12-29T16:11:56;2.10;;;1.90;;
12912;SDS011;6524;51.368;11.984;2023-12-29T16:16:57;1.85;;;1.63;;
12912;SDS011;6524;51.368;11.984;2023-12-29T16:21:57;1.57;;;1.30;;
12912;SDS011;6524;51.368;11.984;2023-12-29T16:26:57;1.50;;;1.40;;
12912;SDS011;6524;51.368;11.984;2023-12-29T16:31:58;1.60;;;1.50;;
12912;SDS011;6524;51.368;11.984;2023-12-29T16:37:02;2.58;;;1.70;;
12912;SDS011;6524;51.368;11.984;2023-12-29T16:42:02;2.92;;;2.00;;
12912;SDS011;6524;51.368;11.984;2023-12-29T16:47:03;2.20;;;1.70;;
12912;SDS011;6524;51.368;11.984;2023-12-29T16:52:05;2.03;;;1.80;;
12912;SDS011;6524;51.368;11.984;2023-12-29T16:57:06;2.10;;;1.80;;
12912;SDS011;6524;51.368;11.984;2023-12-29T17:02:06;1.65;;;1.50;;
12912;SDS011;6524;51.368;11.984;2023-12-29T17:07:07;2.10;;;1.88;;
12912;SDS011;6524;51.368;11.984;2023-12-29T17:12:09;1.67;;;1.50;;
12912;SDS011;6524;51.368;11.984;2023-12-29T17:17:10;1.90;;;1.80;;
12912;SDS011;6524;51.368;11.984;2023-12-29T17:22:10;2.08;;;1.70;;
12912;SDS011;6524;51.368;11.984;2023-12-29T17:27:11;1.95;;;1.75;;
12912;SDS011;6524;51.368;11.984;2023-12-29T17:32:11;2.55;;;1.50;;
12912;SDS011;6524;51.368;11.984;2023-12-29T17:37:11;1.60;;;1.50;;
12912;SDS011;6524;51.368;11.984;2023-12-29T17:42:12;2.38;;;2.05;;
12912;SDS011;6524;51.368;11.984;2023-12-29T17:47:12;1.92;;;1.67;;
12912;SDS011;6524;51.368;11.984;2023-12-29T17:52:12;1.83;;;1.70;;
12912;SDS011;6524;51.368;11.984;2023-12-29T17:57:13;1.67;;;1.50;;
12912;SDS011;6524;51.368;11.984;2023-12-29T18:02:13;1.50;;;1.40;;
12912;SDS011;6524;51.368;11.984;2023-12-29T18:07:14;1.60;;;1.35;;
12912;SDS011;6524;51.368;11.984;2023-12-29T18:12:15;4.90;;;2.90;;
12912;SDS011;6524;51.368;11.984;2023-12-29T18:17:16;1.58;;;1.48;;
12912;SDS011;6524;51.368;11.984;2023-12-29T18:22:16;2.10;;;1.50;;
12912;SDS011;6524;51.368;11.984;2023-12-29T18:27:17;1.88;;;1.50;;
12912;SDS011;6524;51.368;11.984;2023-12-29T18:32:17;1.65;;;1.45;;
12912;SDS011;6524;51.368;11.984;2023-12-29T18:37:18;1.63;;;1.30;;
12912;SDS011;6524;51.368;11.984;2023-12-29T18:42:19;3.33;;;2.47;;
12912;SDS011;6524;51.368;11.984;2023-12-29T18:47:19;2.30;;;1.30;;
12912;SDS011;6524;51.368;11.984;2023-12-29T18:52:20;2.25;;;1.20;;
12912;SDS011;6524;51.368;11.984;2023-12-29T18:57:20;1.30;;;1.20;;
12912;SDS011;6524;51.368;11.984;2023-12-29T19:02:21;1.48;;;1.30;;
12912;SDS011;6524;51.368;11.984;2023-12-29T19:07:21;1.42;;;1.33;;
12912;SDS011;6524;51.368;11.984;2023-12-29T19:12:23;1.40;;;1.30;;
12912;SDS011;6524;51.368;11.984;2023-12-29T19:17:24;1.58;;;1.30;;
12912;SDS011;6524;51.368;11.984;2023-12-29T19:22:25;2.50;;;1.30;;
12912;SDS011;6524;51.368;11.984;2023-12-29T19:27:25;2.00;;;1.48;;
12912;SDS011;6524;51.368;11.984;2023-12-29T19:32:25;1.20;;;1.05;;
12912;SDS011;6524;51.368;11.984;2023-12-29T19:37:26;2.15;;;1.25;;
12912;SDS011;6524;51.368;11.984;2023-12-29T19:42:26;2.38;;;1.30;;
12912;SDS011;6524;51.368;11.984;2023-12-29T19:47:27;1.40;;;1.30;;
12912;SDS011;6524;51.368;11.984;2023-12-29T19:52:27;1.35;;;1.23;;
12912;SDS011;6524;51.368;11.984;2023-12-29T19:57:28;2.35;;;1.30;;
12912;SDS011;6524;51.368;11.984;2023-12-29T20:02:28;1.60;;;1.30;;
12912;SDS011;6524;51.368;11.984;2023-12-29T20:07:28;1.95;;;1.70;;
12912;SDS011;6524;51.368;11.984;2023-12-29T20:12:29;1.40;;;1.30;;
12912;SDS011;6524;51.368;11.984;2023-12-29T20:17:29;2.53;;;2.03;;
12912;SDS011;6524;51.368;11.984;2023-12-29T20:22:30;1.67;;;1.58;;
12912;SDS011;6524;51.368;11.984;2023-12-29T20:27:31;2.05;;;1.80;;
12912;SDS011;6524;51.368;11.984;2023-12-29T20:32:32;1.30;;;1.20;;
12912;SDS011;6524;51.368;11.984;2023-12-29T20:37:32;1.65;;;1.33;;
12912;SDS011;6524;51.368;11.984;2023-12-29T20:42:32;1.30;;;1.20;;
12912;SDS011;6524;51.368;11.984;2023-12-29T20:47:33;1.30;;;1.20;;
12912;SDS011;6524;51.368;11.984;2023-12-29T20:52:33;1.50;;;1.40;;
12912;SDS011;6524;51.368;11.984;2023-12-29T20:57:34;2.55;;;1.42;;
12912;SDS011;6524;51.368;11.984;2023-12-29T21:02:34;1.38;;;1.27;;
12912;SDS011;6524;51.368;11.984;2023-12-29T21:07:34;2.35;;;1.60;;
12912;SDS011;6524;51.368;11.984;2023-12-29T21:12:35;1.50;;;1.40;;
12912;SDS011;6524;51.368;11.984;2023-12-29T21:17:35;3.28;;;2.40;;
12912;SDS011;6524;51.368;11.984;2023-12-29T21:22:35;1.83;;;1.30;;
12912;SDS011;6524;51.368;11.984;2023-12-29T21:27:36;1.70;;;1.35;;
12912;SDS011;6524;51.368;11.984;2023-12-29T21:32:36;1.40;;;1.30;;
12912;SDS011;6524;51.368;11.984;2023-12-29T21:37:40;2.05;;;1.30;;
12912;SDS011;6524;51.368;11.984;2023-12-29T21:42:40;1.60;;;1.50;;
12912;SDS011;6524;51.368;11.984;2023-12-29T21:47:42;2.03;;;1.30;;
12912;SDS011;6524;51.368;11.984;2023-12-29T21:52:43;1.40;;;1.30;;
12912;SDS011;6524;51.368;11.984;2023-12-29T21:57:44;1.95;;;1.20;;
12912;SDS011;6524;51.368;11.984;2023-12-29T22:02:44;2.58;;;1.23;;
12912;SDS011;6524;51.368;11.984;2023-12-29T22:07:45;1.95;;;1.33;;
12912;SDS011;6524;51.368;11.984;2023-12-29T22:12:45;1.90;;;1.35;;
12912;SDS011;6524;51.368;11.984;2023-12-29T22:17:45;1.70;;;1.27;;
12912;SDS011;6524;51.368;11.984;2023-12-29T22:22:46;2.00;;;1.50;;
12912;SDS011;6524;51.368;11.984;2023-12-29T22:27:49;1.50;;;1.23;;
12912;SDS011;6524;51.368;11.984;2023-12-29T22:32:49;2.15;;;1.33;;
12912;SDS011;6524;51.368;11.984;2023-12-29T22:37:50;1.20;;;1.10;;
12912;SDS011;6524;51.368;11.984;2023-12-29T22:42:50;1.25;;;1.15;;
12912;SDS011;6524;51.368;11.984;2023-12-29T22:47:50;1.75;;;1.30;;
12912;SDS011;6524;51.368;11.984;2023-12-29T22:52:50;1.10;;;1.10;;
12912;SDS011;6524;51.368;11.984;2023-12-29T22:57:51;1.63;;;1.20;;
12912;SDS011;6524;51.368;11.984;2023-12-29T23:02:51;2.15;;;1.40;;
12912;SDS011;6524;51.368;11.984;2023-12-29T23:07:51;1.98;;;1.40;;
12912;SDS011;6524;51.368;11.984;2023-12-29T23:12:55;1.42;;;1.30;;
12912;SDS011;6524;51.368;11.984;2023-12-29T23:17:55;2.00;;;1.60;;
12912;SDS011;6524;51.368;11.984;2023-12-29T23:22:56;3.10;;;1.60;;
12912;SDS011;6524;51.368;11.984;2023-12-29T23:27:56;4.25;;;1.60;;
12912;SDS011;6524;51.368;11.984;2023-12-29T23:32:56;2.25;;;1.50;;
12912;SDS011;6524;51.368;11.984;2023-12-29T23:37:57;1.52;;;1.30;;
12912;SDS011;6524;51.368;11.984;2023-12-29T23:42:57;1.38;;;1.10;;
12912;SDS011;6524;51.368;11.984;2023-12-29T23:47:57;1.23;;;1.13;;
12912;SDS011;6524;51.368;11.984;2023-12-29T23:52:58;3.60;;;1.00;;
12912;SDS011;6524;51.368;11.984;2023-12-29T23:57:59;1.73;;;1.00;;
